Řízení letového provozu České republiky
Letiste: LKTB Aktualizace: 18.08.2018 11:31:07  UTC
 METAR LKTB 18.08. 11:30 ...
METAR LKTB 181130Z 14006KT 080V190 CAVOK 31/10 Q1019 NOSIG RMK REG QNH 1017=
 TAF LKTB 18.08. 11:00 ...
TAF LKTB 181100Z 1812/1918 08006KT CAVOK      PROB30 TEMPO 1812/1817 SCT060CB      BECMG 1822/1900 VRB02KT      BECMG 1906/1909 08008KT      PROB30 TEMPO 1910/1918 7000 SHRA SCT050CB=